sensor_id;sensor_type;location;lat;lon;timestamp;temperature;humidity
41220;DHT22;26951;47.338;9.196;2022-07-29T00:00:05;15.40;69.70
41220;DHT22;26951;47.338;9.196;2022-07-29T00:02:50;15.40;68.80
41220;DHT22;26951;47.338;9.196;2022-07-29T00:05:34;15.40;69.00
41220;DHT22;26951;47.338;9.196;2022-07-29T00:08:18;15.30;68.90
41220;DHT22;26951;47.338;9.196;2022-07-29T00:11:03;15.30;69.40
41220;DHT22;26951;47.338;9.196;2022-07-29T00:13:47;15.20;69.10
41220;DHT22;26951;47.338;9.196;2022-07-29T00:16:31;15.20;68.50
41220;DHT22;26951;47.338;9.196;2022-07-29T00:19:15;15.10;69.00
41220;DHT22;26951;47.338;9.196;2022-07-29T00:22:00;15.10;68.70
41220;DHT22;26951;47.338;9.196;2022-07-29T00:24:44;15.00;68.70
41220;DHT22;26951;47.338;9.196;2022-07-29T00:27:30;15.00;68.90
41220;DHT22;26951;47.338;9.196;2022-07-29T00:30:14;14.90;69.20
41220;DHT22;26951;47.338;9.196;2022-07-29T00:32:58;14.80;70.00
41220;DHT22;26951;47.338;9.196;2022-07-29T00:35:42;14.70;70.60
41220;DHT22;26951;47.338;9.196;2022-07-29T00:38:30;14.70;70.00
41220;DHT22;26951;47.338;9.196;2022-07-29T00:41:15;14.60;72.00
41220;DHT22;26951;47.338;9.196;2022-07-29T00:43:59;14.50;73.10
41220;DHT22;26951;47.338;9.196;2022-07-29T00:46:44;14.50;71.90
41220;DHT22;26951;47.338;9.196;2022-07-29T00:49:28;14.60;71.80
41220;DHT22;26951;47.338;9.196;2022-07-29T00:52:12;14.50;72.90
41220;DHT22;26951;47.338;9.196;2022-07-29T00:54:57;14.50;71.70
41220;DHT22;26951;47.338;9.196;2022-07-29T00:57:42;14.50;71.30
41220;DHT22;26951;47.338;9.196;2022-07-29T01:04:08;14.60;71.30
41220;DHT22;26951;47.338;9.196;2022-07-29T01:06:52;14.50;70.80
41220;DHT22;26951;47.338;9.196;2022-07-29T01:09:37;14.50;70.50
41220;DHT22;26951;47.338;9.196;2022-07-29T01:12:25;14.40;71.60
41220;DHT22;26951;47.338;9.196;2022-07-29T01:15:11;14.30;73.00
41220;DHT22;26951;47.338;9.196;2022-07-29T01:18:03;14.40;72.60
41220;DHT22;26951;47.338;9.196;2022-07-29T01:26:37;14.30;72.20
41220;DHT22;26951;47.338;9.196;2022-07-29T01:29:29;14.30;71.70
41220;DHT22;26951;47.338;9.196;2022-07-29T01:32:18;14.40;71.50
41220;DHT22;26951;47.338;9.196;2022-07-29T01:35:08;14.40;71.20
41220;DHT22;26951;47.338;9.196;2022-07-29T01:38:02;14.30;71.70
41220;DHT22;26951;47.338;9.196;2022-07-29T01:40:50;14.30;72.60
41220;DHT22;26951;47.338;9.196;2022-07-29T01:43:59;14.30;71.70
41220;DHT22;26951;47.338;9.196;2022-07-29T01:46:50;14.20;71.90
41220;DHT22;26951;47.338;9.196;2022-07-29T01:49:36;14.20;73.20
41220;DHT22;26951;47.338;9.196;2022-07-29T01:52:31;14.20;73.00
41220;DHT22;26951;47.338;9.196;2022-07-29T01:55:17;14.20;72.90
41220;DHT22;26951;47.338;9.196;2022-07-29T01:58:05;14.20;72.10
41220;DHT22;26951;47.338;9.196;2022-07-29T02:00:50;14.30;71.70
41220;DHT22;26951;47.338;9.196;2022-07-29T02:03:36;14.30;71.40
41220;DHT22;26951;47.338;9.196;2022-07-29T02:06:22;14.30;71.20
41220;DHT22;26951;47.338;9.196;2022-07-29T02:09:07;14.30;71.00
41220;DHT22;26951;47.338;9.196;2022-07-29T02:11:53;14.20;73.10
41220;DHT22;26951;47.338;9.196;2022-07-29T02:14:47;14.10;72.80
41220;DHT22;26951;47.338;9.196;2022-07-29T02:17:35;14.10;73.50
41220;DHT22;26951;47.338;9.196;2022-07-29T02:20:23;14.10;73.90
41220;DHT22;26951;47.338;9.196;2022-07-29T02:23:12;14.10;73.90
41220;DHT22;26951;47.338;9.196;2022-07-29T02:25:57;14.20;72.80
41220;DHT22;26951;47.338;9.196;2022-07-29T02:28:42;14.20;72.90
41220;DHT22;26951;47.338;9.196;2022-07-29T02:31:33;14.20;73.90
41220;DHT22;26951;47.338;9.196;2022-07-29T02:34:20;14.20;72.70
41220;DHT22;26951;47.338;9.196;2022-07-29T02:37:05;14.20;72.60
41220;DHT22;26951;47.338;9.196;2022-07-29T02:39:52;14.20;72.70
41220;DHT22;26951;47.338;9.196;2022-07-29T02:42:38;14.20;72.80
41220;DHT22;26951;47.338;9.196;2022-07-29T02:45:25;14.20;72.60
41220;DHT22;26951;47.338;9.196;2022-07-29T02:48:13;14.20;72.60
41220;DHT22;26951;47.338;9.196;2022-07-29T02:51:12;14.20;72.50
41220;DHT22;26951;47.338;9.196;2022-07-29T02:53:57;14.20;72.90
41220;DHT22;26951;47.338;9.196;2022-07-29T02:56:46;14.20;73.70
41220;DHT22;26951;47.338;9.196;2022-07-29T02:59:33;14.30;73.30
41220;DHT22;26951;47.338;9.196;2022-07-29T03:02:20;14.30;72.60
41220;DHT22;26951;47.338;9.196;2022-07-29T03:05:08;14.20;73.50
41220;DHT22;26951;47.338;9.196;2022-07-29T03:07:56;14.30;73.80
41220;DHT22;26951;47.338;9.196;2022-07-29T03:10:43;14.30;73.50
41220;DHT22;26951;47.338;9.196;2022-07-29T03:13:29;14.30;73.80
41220;DHT22;26951;47.338;9.196;2022-07-29T03:16:14;14.30;74.20
41220;DHT22;26951;47.338;9.196;2022-07-29T03:18:59;14.30;73.90
41220;DHT22;26951;47.338;9.196;2022-07-29T03:21:44;14.30;73.60
41220;DHT22;26951;47.338;9.196;2022-07-29T03:24:33;14.40;73.50
41220;DHT22;26951;47.338;9.196;2022-07-29T03:27:18;14.40;73.80
41220;DHT22;26951;47.338;9.196;2022-07-29T03:30:03;14.40;73.60
41220;DHT22;26951;47.338;9.196;2022-07-29T03:32:48;14.40;74.00
41220;DHT22;26951;47.338;9.196;2022-07-29T03:35:33;14.40;73.50
41220;DHT22;26951;47.338;9.196;2022-07-29T03:38:17;14.40;73.40
41220;DHT22;26951;47.338;9.196;2022-07-29T03:41:10;14.40;73.60
41220;DHT22;26951;47.338;9.196;2022-07-29T03:43:56;14.40;74.40
41220;DHT22;26951;47.338;9.196;2022-07-29T03:46:41;14.40;75.10
41220;DHT22;26951;47.338;9.196;2022-07-29T03:49:26;14.40;75.40
41220;DHT22;26951;47.338;9.196;2022-07-29T03:52:11;14.40;74.40
41220;DHT22;26951;47.338;9.196;2022-07-29T03:54:55;14.40;74.30
41220;DHT22;26951;47.338;9.196;2022-07-29T03:57:40;14.40;74.90
41220;DHT22;26951;47.338;9.196;2022-07-29T04:00:26;14.50;75.00
41220;DHT22;26951;47.338;9.196;2022-07-29T04:03:11;14.50;75.20
41220;DHT22;26951;47.338;9.196;2022-07-29T04:06:06;14.50;76.30
41220;DHT22;26951;47.338;9.196;2022-07-29T04:08:50;14.40;77.70
41220;DHT22;26951;47.338;9.196;2022-07-29T04:11:35;14.50;77.90
41220;DHT22;26951;47.338;9.196;2022-07-29T04:14:20;14.50;77.70
41220;DHT22;26951;47.338;9.196;2022-07-29T04:17:04;14.60;78.10
41220;DHT22;26951;47.338;9.196;2022-07-29T04:19:48;14.60;78.80
41220;DHT22;26951;47.338;9.196;2022-07-29T04:22:33;14.70;78.60
41220;DHT22;26951;47.338;9.196;2022-07-29T04:25:17;14.70;78.20
41220;DHT22;26951;47.338;9.196;2022-07-29T04:28:01;14.70;78.00
41220;DHT22;26951;47.338;9.196;2022-07-29T04:30:45;14.80;78.00
41220;DHT22;26951;47.338;9.196;2022-07-29T04:33:30;14.80;78.60
41220;DHT22;26951;47.338;9.196;2022-07-29T04:36:14;14.80;78.50
41220;DHT22;26951;47.338;9.196;2022-07-29T04:38:58;14.80;78.50
41220;DHT22;26951;47.338;9.196;2022-07-29T04:41:42;14.90;78.70
41220;DHT22;26951;47.338;9.196;2022-07-29T04:44:26;14.90;78.10
41220;DHT22;26951;47.338;9.196;2022-07-29T04:47:10;14.90;77.60
41220;DHT22;26951;47.338;9.196;2022-07-29T04:49:54;15.00;77.70
41220;DHT22;26951;47.338;9.196;2022-07-29T04:52:40;15.00;78.70
41220;DHT22;26951;47.338;9.196;2022-07-29T04:55:24;15.00;79.10
41220;DHT22;26951;47.338;9.196;2022-07-29T04:58:09;15.10;79.00
41220;DHT22;26951;47.338;9.196;2022-07-29T05:00:53;15.10;79.60
41220;DHT22;26951;47.338;9.196;2022-07-29T05:03:37;15.20;79.80
41220;DHT22;26951;47.338;9.196;2022-07-29T05:06:21;15.20;79.80
41220;DHT22;26951;47.338;9.196;2022-07-29T05:09:05;15.30;79.80
41220;DHT22;26951;47.338;9.196;2022-07-29T05:11:49;15.30;80.80
41220;DHT22;26951;47.338;9.196;2022-07-29T05:14:33;15.30;80.60
41220;DHT22;26951;47.338;9.196;2022-07-29T05:17:17;15.30;80.80
41220;DHT22;26951;47.338;9.196;2022-07-29T05:20:02;15.40;81.10
41220;DHT22;26951;47.338;9.196;2022-07-29T05:22:46;15.30;82.90
41220;DHT22;26951;47.338;9.196;2022-07-29T05:25:30;15.20;82.10
41220;DHT22;26951;47.338;9.196;2022-07-29T05:28:15;15.20;80.20
41220;DHT22;26951;47.338;9.196;2022-07-29T05:30:59;15.30;79.80
41220;DHT22;26951;47.338;9.196;2022-07-29T05:33:44;15.30;80.60
41220;DHT22;26951;47.338;9.196;2022-07-29T05:36:28;15.30;79.80
41220;DHT22;26951;47.338;9.196;2022-07-29T05:39:12;15.40;80.70
41220;DHT22;26951;47.338;9.196;2022-07-29T05:41:56;15.40;81.40
41220;DHT22;26951;47.338;9.196;2022-07-29T05:44:41;15.40;82.60
41220;DHT22;26951;47.338;9.196;2022-07-29T05:47:25;15.40;82.20
41220;DHT22;26951;47.338;9.196;2022-07-29T05:50:09;15.50;82.20
41220;DHT22;26951;47.338;9.196;2022-07-29T05:52:53;15.50;81.80
41220;DHT22;26951;47.338;9.196;2022-07-29T05:55:38;15.60;83.00
41220;DHT22;26951;47.338;9.196;2022-07-29T05:58:22;15.60;84.00
41220;DHT22;26951;47.338;9.196;2022-07-29T06:01:06;15.70;84.00
41220;DHT22;26951;47.338;9.196;2022-07-29T06:03:50;15.70;85.00
41220;DHT22;26951;47.338;9.196;2022-07-29T06:06:34;15.70;84.50
41220;DHT22;26951;47.338;9.196;2022-07-29T06:09:19;15.80;84.20
41220;DHT22;26951;47.338;9.196;2022-07-29T06:12:03;15.80;84.90
41220;DHT22;26951;47.338;9.196;2022-07-29T06:14:48;15.90;85.30
41220;DHT22;26951;47.338;9.196;2022-07-29T06:17:32;16.00;85.10
41220;DHT22;26951;47.338;9.196;2022-07-29T06:20:16;16.00;86.40
41220;DHT22;26951;47.338;9.196;2022-07-29T06:23:00;16.10;87.80
41220;DHT22;26951;47.338;9.196;2022-07-29T06:25:45;16.20;88.60
41220;DHT22;26951;47.338;9.196;2022-07-29T06:28:29;16.30;90.80
41220;DHT22;26951;47.338;9.196;2022-07-29T06:31:13;16.40;89.80
41220;DHT22;26951;47.338;9.196;2022-07-29T06:33:57;16.50;88.00
41220;DHT22;26951;47.338;9.196;2022-07-29T06:36:41;16.60;89.50
41220;DHT22;26951;47.338;9.196;2022-07-29T06:39:25;16.80;90.20
41220;DHT22;26951;47.338;9.196;2022-07-29T06:42:10;16.90;90.30
41220;DHT22;26951;47.338;9.196;2022-07-29T06:44:54;17.00;90.00
41220;DHT22;26951;47.338;9.196;2022-07-29T06:47:38;17.10;90.10
41220;DHT22;26951;47.338;9.196;2022-07-29T06:50:22;17.20;89.70
41220;DHT22;26951;47.338;9.196;2022-07-29T06:53:07;17.30;88.50
41220;DHT22;26951;47.338;9.196;2022-07-29T06:55:51;17.50;89.80
41220;DHT22;26951;47.338;9.196;2022-07-29T06:58:36;17.60;90.00
41220;DHT22;26951;47.338;9.196;2022-07-29T07:01:20;17.70;90.00
41220;DHT22;26951;47.338;9.196;2022-07-29T07:04:04;17.80;90.00
41220;DHT22;26951;47.338;9.196;2022-07-29T07:06:48;18.00;89.50
41220;DHT22;26951;47.338;9.196;2022-07-29T07:09:34;18.10;88.40
41220;DHT22;26951;47.338;9.196;2022-07-29T07:12:18;18.20;87.30
41220;DHT22;26951;47.338;9.196;2022-07-29T07:15:03;18.30;87.10
41220;DHT22;26951;47.338;9.196;2022-07-29T07:17:48;18.40;86.30
41220;DHT22;26951;47.338;9.196;2022-07-29T07:20:33;18.50;83.60
41220;DHT22;26951;47.338;9.196;2022-07-29T07:23:18;18.50;82.40
41220;DHT22;26951;47.338;9.196;2022-07-29T07:26:02;18.60;82.30
41220;DHT22;26951;47.338;9.196;2022-07-29T07:28:47;18.60;81.40
41220;DHT22;26951;47.338;9.196;2022-07-29T07:31:31;18.60;80.90
41220;DHT22;26951;47.338;9.196;2022-07-29T07:34:15;18.70;79.90
41220;DHT22;26951;47.338;9.196;2022-07-29T07:36:59;18.70;79.50
41220;DHT22;26951;47.338;9.196;2022-07-29T07:39:43;18.70;78.60
41220;DHT22;26951;47.338;9.196;2022-07-29T07:42:27;18.60;78.70
41220;DHT22;26951;47.338;9.196;2022-07-29T07:45:11;18.60;78.40
41220;DHT22;26951;47.338;9.196;2022-07-29T07:47:55;18.50;78.30
41220;DHT22;26951;47.338;9.196;2022-07-29T07:50:39;18.50;78.50
41220;DHT22;26951;47.338;9.196;2022-07-29T07:53:24;18.50;78.30
41220;DHT22;26951;47.338;9.196;2022-07-29T07:56:08;18.50;78.30
41220;DHT22;26951;47.338;9.196;2022-07-29T07:58:52;18.50;78.30
41220;DHT22;26951;47.338;9.196;2022-07-29T08:01:36;18.50;79.00
41220;DHT22;26951;47.338;9.196;2022-07-29T08:04:20;18.50;79.30
41220;DHT22;26951;47.338;9.196;2022-07-29T08:07:05;18.40;79.40
41220;DHT22;26951;47.338;9.196;2022-07-29T08:09:48;18.40;80.80
41220;DHT22;26951;47.338;9.196;2022-07-29T08:12:33;18.50;81.00
41220;DHT22;26951;47.338;9.196;2022-07-29T08:15:17;18.60;81.80
41220;DHT22;26951;47.338;9.196;2022-07-29T08:18:01;18.70;81.30
41220;DHT22;26951;47.338;9.196;2022-07-29T08:20:45;18.80;79.60
41220;DHT22;26951;47.338;9.196;2022-07-29T08:23:29;18.90;78.70
41220;DHT22;26951;47.338;9.196;2022-07-29T08:26:23;19.00;80.80
41220;DHT22;26951;47.338;9.196;2022-07-29T08:29:08;19.10;79.60
41220;DHT22;26951;47.338;9.196;2022-07-29T08:31:52;19.10;77.90
41220;DHT22;26951;47.338;9.196;2022-07-29T08:34:37;19.20;76.10
41220;DHT22;26951;47.338;9.196;2022-07-29T08:37:21;19.30;71.60
41220;DHT22;26951;47.338;9.196;2022-07-29T08:40:05;19.30;69.00
41220;DHT22;26951;47.338;9.196;2022-07-29T08:42:50;19.30;72.10
41220;DHT22;26951;47.338;9.196;2022-07-29T08:45:45;19.30;72.70
41220;DHT22;26951;47.338;9.196;2022-07-29T08:48:29;19.40;74.30
41220;DHT22;26951;47.338;9.196;2022-07-29T08:51:15;19.50;76.40
41220;DHT22;26951;47.338;9.196;2022-07-29T08:54:00;19.50;73.50
41220;DHT22;26951;47.338;9.196;2022-07-29T08:56:48;19.60;73.40
41220;DHT22;26951;47.338;9.196;2022-07-29T08:59:34;19.60;72.20
41220;DHT22;26951;47.338;9.196;2022-07-29T09:02:20;19.60;70.40
41220;DHT22;26951;47.338;9.196;2022-07-29T09:05:05;19.60;72.10
41220;DHT22;26951;47.338;9.196;2022-07-29T09:07:50;19.60;72.10
41220;DHT22;26951;47.338;9.196;2022-07-29T09:10:37;19.60;71.50
41220;DHT22;26951;47.338;9.196;2022-07-29T09:13:22;19.60;70.20
41220;DHT22;26951;47.338;9.196;2022-07-29T09:16:06;19.50;71.00
41220;DHT22;26951;47.338;9.196;2022-07-29T09:18:50;19.50;70.40
41220;DHT22;26951;47.338;9.196;2022-07-29T09:21:40;19.40;72.00
41220;DHT22;26951;47.338;9.196;2022-07-29T09:24:47;19.40;71.50
41220;DHT22;26951;47.338;9.196;2022-07-29T09:27:31;19.30;72.60
41220;DHT22;26951;47.338;9.196;2022-07-29T09:30:16;19.30;73.50
41220;DHT22;26951;47.338;9.196;2022-07-29T09:33:01;19.30;73.20
41220;DHT22;26951;47.338;9.196;2022-07-29T09:36:08;19.30;73.10
41220;DHT22;26951;47.338;9.196;2022-07-29T09:39:02;19.30;74.00
41220;DHT22;26951;47.338;9.196;2022-07-29T09:41:55;19.30;72.20
41220;DHT22;26951;47.338;9.196;2022-07-29T09:44:49;19.20;72.40
41220;DHT22;26951;47.338;9.196;2022-07-29T09:47:45;19.20;73.10
41220;DHT22;26951;47.338;9.196;2022-07-29T09:50:39;19.20;72.70
41220;DHT22;26951;47.338;9.196;2022-07-29T09:53:44;19.20;69.50
41220;DHT22;26951;47.338;9.196;2022-07-29T09:56:42;19.20;72.30
41220;DHT22;26951;47.338;9.196;2022-07-29T09:59:26;19.20;73.30
41220;DHT22;26951;47.338;9.196;2022-07-29T10:02:12;19.30;72.50
41220;DHT22;26951;47.338;9.196;2022-07-29T10:04:58;19.40;73.90
41220;DHT22;26951;47.338;9.196;2022-07-29T10:07:54;19.40;73.00
41220;DHT22;26951;47.338;9.196;2022-07-29T10:10:41;19.40;72.60
41220;DHT22;26951;47.338;9.196;2022-07-29T10:13:26;19.50;73.60
41220;DHT22;26951;47.338;9.196;2022-07-29T10:16:11;19.60;74.20
41220;DHT22;26951;47.338;9.196;2022-07-29T10:18:56;19.70;73.70
41220;DHT22;26951;47.338;9.196;2022-07-29T10:21:40;19.70;73.00
41220;DHT22;26951;47.338;9.196;2022-07-29T10:24:27;19.70;73.60
41220;DHT22;26951;47.338;9.196;2022-07-29T10:27:12;19.80;76.30
41220;DHT22;26951;47.338;9.196;2022-07-29T10:29:56;19.90;76.70
41220;DHT22;26951;47.338;9.196;2022-07-29T10:38:52;20.40;69.90
41220;DHT22;26951;47.338;9.196;2022-07-29T10:44:42;20.70;70.20
41220;DHT22;26951;47.338;9.196;2022-07-29T10:47:27;21.00;72.20
41220;DHT22;26951;47.338;9.196;2022-07-29T10:50:12;21.30;71.90
41220;DHT22;26951;47.338;9.196;2022-07-29T10:52:56;21.70;63.70
41220;DHT22;26951;47.338;9.196;2022-07-29T10:55:41;22.00;66.20
41220;DHT22;26951;47.338;9.196;2022-07-29T10:58:28;22.30;62.10
41220;DHT22;26951;47.338;9.196;2022-07-29T11:01:29;22.60;58.30
41220;DHT22;26951;47.338;9.196;2022-07-29T11:04:13;22.90;58.50
41220;DHT22;26951;47.338;9.196;2022-07-29T11:12:59;23.50;53.10
41220;DHT22;26951;47.338;9.196;2022-07-29T11:15:56;23.60;51.80
41220;DHT22;26951;47.338;9.196;2022-07-29T11:21:56;23.70;50.60
41220;DHT22;26951;47.338;9.196;2022-07-29T11:24:41;23.70;50.00
41220;DHT22;26951;47.338;9.196;2022-07-29T11:27:30;23.70;50.60
41220;DHT22;26951;47.338;9.196;2022-07-29T11:30:15;23.80;50.30
41220;DHT22;26951;47.338;9.196;2022-07-29T11:32:59;23.90;47.90
41220;DHT22;26951;47.338;9.196;2022-07-29T11:36:07;23.80;50.00
41220;DHT22;26951;47.338;9.196;2022-07-29T11:38:51;23.90;51.40
41220;DHT22;26951;47.338;9.196;2022-07-29T11:41:35;23.90;51.30
41220;DHT22;26951;47.338;9.196;2022-07-29T11:44:53;24.00;51.20
41220;DHT22;26951;47.338;9.196;2022-07-29T11:47:39;24.10;48.30
41220;DHT22;26951;47.338;9.196;2022-07-29T11:53:16;24.30;50.60
41220;DHT22;26951;47.338;9.196;2022-07-29T11:56:00;24.40;49.00
41220;DHT22;26951;47.338;9.196;2022-07-29T11:58:44;24.30;46.50
41220;DHT22;26951;47.338;9.196;2022-07-29T12:01:28;24.20;48.30
41220;DHT22;26951;47.338;9.196;2022-07-29T12:04:13;24.20;47.30
41220;DHT22;26951;47.338;9.196;2022-07-29T12:06:58;24.20;46.30
41220;DHT22;26951;47.338;9.196;2022-07-29T12:09:52;24.20;45.90
41220;DHT22;26951;47.338;9.196;2022-07-29T12:12:37;24.10;47.00
41220;DHT22;26951;47.338;9.196;2022-07-29T12:15:22;24.10;46.00
41220;DHT22;26951;47.338;9.196;2022-07-29T12:18:18;24.00;47.10
41220;DHT22;26951;47.338;9.196;2022-07-29T12:21:04;23.90;46.40
41220;DHT22;26951;47.338;9.196;2022-07-29T12:23:55;23.90;45.00
41220;DHT22;26951;47.338;9.196;2022-07-29T12:26:57;23.70;45.80
41220;DHT22;26951;47.338;9.196;2022-07-29T12:29:42;23.60;47.00
41220;DHT22;26951;47.338;9.196;2022-07-29T12:32:38;23.50;45.70
41220;DHT22;26951;47.338;9.196;2022-07-29T12:35:23;23.40;46.40
41220;DHT22;26951;47.338;9.196;2022-07-29T12:38:09;23.20;46.00
41220;DHT22;26951;47.338;9.196;2022-07-29T12:40:54;23.10;45.70
41220;DHT22;26951;47.338;9.196;2022-07-29T12:43:52;23.00;44.90
41220;DHT22;26951;47.338;9.196;2022-07-29T12:46:36;22.90;44.80
41220;DHT22;26951;47.338;9.196;2022-07-29T12:49:21;22.90;45.40
41220;DHT22;26951;47.338;9.196;2022-07-29T12:52:32;22.80;46.40
41220;DHT22;26951;47.338;9.196;2022-07-29T12:55:41;22.80;46.80
41220;DHT22;26951;47.338;9.196;2022-07-29T12:58:33;22.70;47.40
41220;DHT22;26951;47.338;9.196;2022-07-29T13:01:19;22.70;47.80
41220;DHT22;26951;47.338;9.196;2022-07-29T13:04:04;22.60;49.10
41220;DHT22;26951;47.338;9.196;2022-07-29T13:07:01;22.50;49.70
41220;DHT22;26951;47.338;9.196;2022-07-29T13:09:46;22.50;51.00
41220;DHT22;26951;47.338;9.196;2022-07-29T13:12:30;22.50;52.90
41220;DHT22;26951;47.338;9.196;2022-07-29T13:15:14;22.50;51.90
41220;DHT22;26951;47.338;9.196;2022-07-29T13:18:00;22.60;55.10
41220;DHT22;26951;47.338;9.196;2022-07-29T13:20:44;22.60;50.50
41220;DHT22;26951;47.338;9.196;2022-07-29T13:23:28;22.70;52.60
41220;DHT22;26951;47.338;9.196;2022-07-29T13:26:12;22.70;51.50
41220;DHT22;26951;47.338;9.196;2022-07-29T13:28:57;22.70;53.40
41220;DHT22;26951;47.338;9.196;2022-07-29T13:31:41;22.80;53.00
41220;DHT22;26951;47.338;9.196;2022-07-29T13:34:26;22.90;51.10
41220;DHT22;26951;47.338;9.196;2022-07-29T13:37:10;23.00;50.80
41220;DHT22;26951;47.338;9.196;2022-07-29T13:39:54;23.00;52.20
41220;DHT22;26951;47.338;9.196;2022-07-29T13:42:40;23.00;49.10
41220;DHT22;26951;47.338;9.196;2022-07-29T13:45:24;22.90;46.40
41220;DHT22;26951;47.338;9.196;2022-07-29T13:48:09;22.80;45.00
41220;DHT22;26951;47.338;9.196;2022-07-29T13:50:53;22.70;46.00
41220;DHT22;26951;47.338;9.196;2022-07-29T13:53:38;22.50;45.10
41220;DHT22;26951;47.338;9.196;2022-07-29T13:56:22;22.50;45.30
41220;DHT22;26951;47.338;9.196;2022-07-29T13:59:06;22.40;46.40
41220;DHT22;26951;47.338;9.196;2022-07-29T14:01:51;22.20;44.80
41220;DHT22;26951;47.338;9.196;2022-07-29T14:04:35;22.10;45.60
41220;DHT22;26951;47.338;9.196;2022-07-29T14:07:20;21.90;46.00
41220;DHT22;26951;47.338;9.196;2022-07-29T14:10:04;21.80;47.20
41220;DHT22;26951;47.338;9.196;2022-07-29T14:12:48;21.60;47.70
41220;DHT22;26951;47.338;9.196;2022-07-29T14:15:32;21.60;49.20
41220;DHT22;26951;47.338;9.196;2022-07-29T14:18:16;21.50;51.00
41220;DHT22;26951;47.338;9.196;2022-07-29T14:21:00;21.30;50.30
41220;DHT22;26951;47.338;9.196;2022-07-29T14:23:44;21.20;50.40
41220;DHT22;26951;47.338;9.196;2022-07-29T14:26:29;21.10;51.90
41220;DHT22;26951;47.338;9.196;2022-07-29T14:29:12;21.00;51.60
41220;DHT22;26951;47.338;9.196;2022-07-29T14:31:57;20.90;52.50
41220;DHT22;26951;47.338;9.196;2022-07-29T14:34:41;20.90;52.40
41220;DHT22;26951;47.338;9.196;2022-07-29T14:37:25;20.90;52.80
41220;DHT22;26951;47.338;9.196;2022-07-29T14:40:10;20.90;53.00
41220;DHT22;26951;47.338;9.196;2022-07-29T14:42:54;20.80;54.70
41220;DHT22;26951;47.338;9.196;2022-07-29T14:45:39;20.80;56.80
41220;DHT22;26951;47.338;9.196;2022-07-29T14:48:23;20.70;56.40
41220;DHT22;26951;47.338;9.196;2022-07-29T14:51:07;20.60;57.40
41220;DHT22;26951;47.338;9.196;2022-07-29T14:53:51;20.50;59.50
41220;DHT22;26951;47.338;9.196;2022-07-29T14:56:35;20.40;59.90
41220;DHT22;26951;47.338;9.196;2022-07-29T14:59:19;20.30;61.10
41220;DHT22;26951;47.338;9.196;2022-07-29T15:02:04;20.20;62.50
41220;DHT22;26951;47.338;9.196;2022-07-29T15:04:48;20.20;62.60
41220;DHT22;26951;47.338;9.196;2022-07-29T15:07:32;20.10;61.90
41220;DHT22;26951;47.338;9.196;2022-07-29T15:10:16;20.10;65.30
41220;DHT22;26951;47.338;9.196;2022-07-29T15:13:01;20.10;63.90
41220;DHT22;26951;47.338;9.196;2022-07-29T15:15:45;20.00;64.20
41220;DHT22;26951;47.338;9.196;2022-07-29T15:18:29;19.90;65.50
41220;DHT22;26951;47.338;9.196;2022-07-29T15:21:13;19.90;65.00
41220;DHT22;26951;47.338;9.196;2022-07-29T15:23:59;19.90;66.00
41220;DHT22;26951;47.338;9.196;2022-07-29T15:26:43;19.90;66.50
41220;DHT22;26951;47.338;9.196;2022-07-29T15:29:28;19.80;66.60
41220;DHT22;26951;47.338;9.196;2022-07-29T15:32:12;19.80;66.60
41220;DHT22;26951;47.338;9.196;2022-07-29T15:34:56;19.70;66.60
41220;DHT22;26951;47.338;9.196;2022-07-29T15:37:40;19.60;68.20
41220;DHT22;26951;47.338;9.196;2022-07-29T15:40:24;19.60;68.70
41220;DHT22;26951;47.338;9.196;2022-07-29T15:43:09;19.60;68.90
41220;DHT22;26951;47.338;9.196;2022-07-29T15:45:53;19.60;67.30
41220;DHT22;26951;47.338;9.196;2022-07-29T15:48:56;19.60;69.00
41220;DHT22;26951;47.338;9.196;2022-07-29T15:51:40;19.50;67.70
41220;DHT22;26951;47.338;9.196;2022-07-29T15:54:25;19.40;68.90
41220;DHT22;26951;47.338;9.196;2022-07-29T15:57:09;19.40;70.10
41220;DHT22;26951;47.338;9.196;2022-07-29T15:59:53;19.40;70.60
41220;DHT22;26951;47.338;9.196;2022-07-29T16:02:38;19.40;69.50
41220;DHT22;26951;47.338;9.196;2022-07-29T16:05:22;19.30;68.50
41220;DHT22;26951;47.338;9.196;2022-07-29T16:08:07;19.30;69.50
41220;DHT22;26951;47.338;9.196;2022-07-29T16:10:51;19.30;69.40
41220;DHT22;26951;47.338;9.196;2022-07-29T16:13:36;19.30;69.40
41220;DHT22;26951;47.338;9.196;2022-07-29T16:16:20;19.30;70.10
41220;DHT22;26951;47.338;9.196;2022-07-29T16:19:04;19.20;70.60
41220;DHT22;26951;47.338;9.196;2022-07-29T16:21:49;19.20;71.20
41220;DHT22;26951;47.338;9.196;2022-07-29T16:24:33;19.10;70.00
41220;DHT22;26951;47.338;9.196;2022-07-29T16:27:17;19.10;69.80
41220;DHT22;26951;47.338;9.196;2022-07-29T16:30:01;19.00;71.20
41220;DHT22;26951;47.338;9.196;2022-07-29T16:32:45;19.10;71.40
41220;DHT22;26951;47.338;9.196;2022-07-29T16:35:29;19.00;72.00
41220;DHT22;26951;47.338;9.196;2022-07-29T16:38:13;19.00;72.10
41220;DHT22;26951;47.338;9.196;2022-07-29T16:40:57;19.00;72.60
41220;DHT22;26951;47.338;9.196;2022-07-29T16:43:42;18.90;69.90
41220;DHT22;26951;47.338;9.196;2022-07-29T16:46:26;18.90;69.00
41220;DHT22;26951;47.338;9.196;2022-07-29T16:49:10;18.90;70.90
41220;DHT22;26951;47.338;9.196;2022-07-29T16:51:54;18.80;69.80
41220;DHT22;26951;47.338;9.196;2022-07-29T16:54:38;18.80;71.20
41220;DHT22;26951;47.338;9.196;2022-07-29T16:57:24;18.80;69.70
41220;DHT22;26951;47.338;9.196;2022-07-29T17:00:08;18.80;71.80
41220;DHT22;26951;47.338;9.196;2022-07-29T17:02:53;18.70;71.10
41220;DHT22;26951;47.338;9.196;2022-07-29T17:05:37;18.70;72.10
41220;DHT22;26951;47.338;9.196;2022-07-29T17:08:21;18.60;71.40
41220;DHT22;26951;47.338;9.196;2022-07-29T17:11:05;18.60;72.20
41220;DHT22;26951;47.338;9.196;2022-07-29T17:13:49;18.60;71.60
41220;DHT22;26951;47.338;9.196;2022-07-29T17:16:33;18.60;72.50
41220;DHT22;26951;47.338;9.196;2022-07-29T17:19:17;18.50;71.40
41220;DHT22;26951;47.338;9.196;2022-07-29T17:22:03;18.50;70.40
41220;DHT22;26951;47.338;9.196;2022-07-29T17:24:50;18.50;71.60
41220;DHT22;26951;47.338;9.196;2022-07-29T17:27:34;18.40;70.10
41220;DHT22;26951;47.338;9.196;2022-07-29T17:30:18;18.40;71.50
41220;DHT22;26951;47.338;9.196;2022-07-29T17:33:02;18.40;71.70
41220;DHT22;26951;47.338;9.196;2022-07-29T17:35:47;18.40;71.40
41220;DHT22;26951;47.338;9.196;2022-07-29T17:38:59;18.40;72.00
41220;DHT22;26951;47.338;9.196;2022-07-29T17:41:44;18.40;70.60
41220;DHT22;26951;47.338;9.196;2022-07-29T17:44:29;18.40;70.70
41220;DHT22;26951;47.338;9.196;2022-07-29T17:47:13;18.30;71.60
41220;DHT22;26951;47.338;9.196;2022-07-29T17:49:57;18.30;71.30
41220;DHT22;26951;47.338;9.196;2022-07-29T17:52:42;18.30;70.60
41220;DHT22;26951;47.338;9.196;2022-07-29T17:55:26;18.20;71.40
41220;DHT22;26951;47.338;9.196;2022-07-29T17:58:10;18.20;70.40